Timothy C. Allen — WDD4357 — position and weather

sailwx.info

Track history (hours):
 
Tides and Currents Weather Stations Pressure Air Temp Water Temp Dewpoint Dewpoint Depression Visibility Wind Speed Wind Dir Waves Ship Positions

Timothy C. Allen

Owner: American Commercial Lines LLC, Jeffersonville, IN. More information available from US FCC via Universal Licensing System and Coast Guard Vessel Documentation Center.

Last reported at 2017-Oct-16 10:44 UTC. Time now 2017-Oct-17 20:24 UTC.
Position N 32°40' W 091°07'.

Length 37 m; draft 2.9 m.

Type: Towing. MMSI: 367143690.

Date/timePositionNaut miles runAvg speedWind from/ knotsBaromVisibWave heightAir tempDewpointWater temp
2017-Oct-16 10:44N 32°40' W 091°07'1 3.9
2017-Oct-16 10:30N 32°40' W 091°08'2 3.7
2017-Oct-16 10:00N 32°38' W 091°09'2 4.8
2017-Oct-16 09:30N 32°36' W 091°08'2 3.5
2017-Oct-16 09:00N 32°35' W 091°07'2 4.2
2017-Oct-16 08:30N 32°33' W 091°06'2 4.8
2017-Oct-16 08:00N 32°30' W 091°07'3 5.2
2017-Oct-16 07:30N 32°28' W 091°06'3 5.5
2017-Oct-16 07:00N 32°26' W 091°03'3 5.2
2017-Oct-16 06:30N 32°25' W 091°01'2 4.1
2017-Oct-16 06:00N 32°24' W 090°60'2 4.9
2017-Oct-16 05:30N 32°21' W 090°60'3 5.5
2017-Oct-16 05:00N 32°21' W 090°57'2 4.6
2017-Oct-16 04:30N 32°20' W 090°54'2 4.5
2017-Oct-16 04:00N 32°18' W 090°55'0 0.0
2017-Oct-16 03:31N 32°18' W 090°55'0 0.4
2017-Oct-16 03:00N 32°18' W 090°55'0 0.6
2017-Oct-16 02:30N 32°18' W 090°56'2 4.6
2017-Oct-16 02:00N 32°16' W 090°58'2 3.4
2017-Oct-16 01:30N 32°15' W 090°59'1 3.0
2017-Oct-16 01:00N 32°13' W 090°59'1 3.0
2017-Oct-16 00:30N 32°12' W 090°59'2 4.1
2017-Oct-16 00:00N 32°10' W 091°00'2 4.2
2017-Oct-15 23:30N 32°08' W 091°01'2 3.8
2017-Oct-15 23:00N 32°07' W 091°03'2 4.9
2017-Oct-15 22:30N 32°08' W 091°06'2 3.4
2017-Oct-15 22:00N 32°06' W 091°06'4 2.0
2017-Oct-15 20:05N 32°03' W 091°03'0 4.2
2017-Oct-15 19:59N 32°03' W 091°03'  
2017-Oct-12 03:52N 29°48' W 091°49'5 4.1
2017-Oct-12 02:40N 29°51' W 091°54'1 5.0
2017-Oct-12 02:30N 29°51' W 091°55'2 4.9
2017-Oct-12 02:01N 29°50' W 091°58'3 5.0
2017-Oct-12 01:31N 29°50' W 092°01'2 4.9
2017-Oct-12 01:01N 29°49' W 092°03'2 5.0
2017-Oct-12 00:30N 29°48' W 092°06'3 5.0
2017-Oct-12 00:01N 29°47' W 092°09'3 5.1
2017-Oct-11 23:31N 29°47' W 092°12'2 4.8
2017-Oct-11 23:00N 29°48' W 092°14'2 5.0
2017-Oct-11 22:31N 29°49' W 092°17'2 4.8
2017-Oct-11 22:01N 29°50' W 092°19'36 1.6
2017-Oct-10 23:49N 29°56' W 092°60'33 5.1
2017-Oct-10 17:16N 29°51' W 092°22'2 5.5
2017-Oct-10 16:49N 29°50' W 092°19'2 5.3
2017-Oct-10 16:31N 29°49' W 092°18'2 3.4
2017-Oct-10 16:01N 29°48' W 092°16'2 4.7
2017-Oct-10 15:31N 29°48' W 092°13'1 1.9
2017-Oct-10 15:01N 29°47' W 092°12'1 0.7
2017-Oct-10 14:00N 29°47' W 092°12'1 1.2
2017-Oct-10 13:30N 29°47' W 092°11'1 2.9
2017-Oct-10 13:01N 29°47' W 092°09'2 4.2
2017-Oct-10 12:30N 29°47' W 092°07'2 4.6
2017-Oct-10 12:00N 29°48' W 092°04'4 4.9
2017-Oct-10 11:11N 29°50' W 092°00'  
2017-Oct-07 14:13N 31°59' W 091°06'2 9.4
2017-Oct-07 14:00N 32°01' W 091°05'5 8.4
2017-Oct-07 13:22N 32°06' W 091°06'2 6.3
2017-Oct-07 13:01N 32°08' W 091°05'4 8.4
2017-Oct-07 12:31N 32°08' W 091°00'5 9.6
2017-Oct-07 12:00N 32°13' W 090°59'5 9.4
2017-Oct-07 11:30N 32°17' W 090°56'4 7.8
2017-Oct-07 11:01N 32°21' W 090°55'5 9.0
2017-Oct-07 10:30N 32°21' W 090°60'4 8.4
2017-Oct-07 10:01N 32°25' W 091°01'5 9.6
2017-Oct-07 09:31N 32°28' W 091°06'4 8.6
2017-Oct-07 09:00N 32°32' W 091°06'5 9.6
2017-Oct-07 08:30N 32°36' W 091°09'  
Track history (hours):
 
Tides and Currents Weather Stations Pressure Air Temp Water Temp Dewpoint Dewpoint Depression Visibility Wind Speed Wind Dir Waves Ship Positions

Timothy C. Allen

Owner: American Commercial Lines LLC, Jeffersonville, IN. More information available from US FCC via Universal Licensing System and Coast Guard Vessel Documentation Center.

Last reported at 2017-Oct-16 10:44 UTC. Time now 2017-Oct-17 20:24 UTC.
Position N 32°40' W 091°07'.

Length 37 m; draft 2.9 m.

Type: Towing. MMSI: 367143690.

Date/timePositionNaut miles runAvg speedWind from/ knotsBaromVisibWave heightAir tempDewpointWater temp
2017-Oct-16 10:44N 32°40' W 091°07'1 3.9
2017-Oct-16 10:30N 32°40' W 091°08'2 3.7
2017-Oct-16 10:00N 32°38' W 091°09'2 4.8
2017-Oct-16 09:30N 32°36' W 091°08'2 3.5
2017-Oct-16 09:00N 32°35' W 091°07'2 4.2
2017-Oct-16 08:30N 32°33' W 091°06'2 4.8
2017-Oct-16 08:00N 32°30' W 091°07'3 5.2
2017-Oct-16 07:30N 32°28' W 091°06'3 5.5
2017-Oct-16 07:00N 32°26' W 091°03'3 5.2
2017-Oct-16 06:30N 32°25' W 091°01'2 4.1
2017-Oct-16 06:00N 32°24' W 090°60'2 4.9
2017-Oct-16 05:30N 32°21' W 090°60'3 5.5
2017-Oct-16 05:00N 32°21' W 090°57'2 4.6
2017-Oct-16 04:30N 32°20' W 090°54'2 4.5
2017-Oct-16 04:00N 32°18' W 090°55'0 0.0
2017-Oct-16 03:31N 32°18' W 090°55'0 0.4
2017-Oct-16 03:00N 32°18' W 090°55'0 0.6
2017-Oct-16 02:30N 32°18' W 090°56'2 4.6
2017-Oct-16 02:00N 32°16' W 090°58'2 3.4
2017-Oct-16 01:30N 32°15' W 090°59'1 3.0
2017-Oct-16 01:00N 32°13' W 090°59'1 3.0
2017-Oct-16 00:30N 32°12' W 090°59'2 4.1
2017-Oct-16 00:00N 32°10' W 091°00'2 4.2
2017-Oct-15 23:30N 32°08' W 091°01'2 3.8
2017-Oct-15 23:00N 32°07' W 091°03'2 4.9
2017-Oct-15 22:30N 32°08' W 091°06'2 3.4
2017-Oct-15 22:00N 32°06' W 091°06'4 2.0
2017-Oct-15 20:05N 32°03' W 091°03'0 4.2
2017-Oct-15 19:59N 32°03' W 091°03'  
2017-Oct-12 03:52N 29°48' W 091°49'5 4.1
2017-Oct-12 02:40N 29°51' W 091°54'1 5.0
2017-Oct-12 02:30N 29°51' W 091°55'2 4.9
2017-Oct-12 02:01N 29°50' W 091°58'3 5.0
2017-Oct-12 01:31N 29°50' W 092°01'2 4.9
2017-Oct-12 01:01N 29°49' W 092°03'2 5.0
2017-Oct-12 00:30N 29°48' W 092°06'3 5.0
2017-Oct-12 00:01N 29°47' W 092°09'3 5.1
2017-Oct-11 23:31N 29°47' W 092°12'2 4.8
2017-Oct-11 23:00N 29°48' W 092°14'2 5.0
2017-Oct-11 22:31N 29°49' W 092°17'2 4.8
2017-Oct-11 22:01N 29°50' W 092°19'36 1.6
2017-Oct-10 23:49N 29°56' W 092°60'33 5.1
2017-Oct-10 17:16N 29°51' W 092°22'2 5.5
2017-Oct-10 16:49N 29°50' W 092°19'2 5.3
2017-Oct-10 16:31N 29°49' W 092°18'2 3.4
2017-Oct-10 16:01N 29°48' W 092°16'2 4.7
2017-Oct-10 15:31N 29°48' W 092°13'1 1.9
2017-Oct-10 15:01N 29°47' W 092°12'1 0.7
2017-Oct-10 14:00N 29°47' W 092°12'1 1.2
2017-Oct-10 13:30N 29°47' W 092°11'1 2.9
2017-Oct-10 13:01N 29°47' W 092°09'2 4.2
2017-Oct-10 12:30N 29°47' W 092°07'2 4.6
2017-Oct-10 12:00N 29°48' W 092°04'4 4.9
2017-Oct-10 11:11N 29°50' W 092°00'  
2017-Oct-07 14:13N 31°59' W 091°06'2 9.4
2017-Oct-07 14:00N 32°01' W 091°05'5 8.4
2017-Oct-07 13:22N 32°06' W 091°06'2 6.3
2017-Oct-07 13:01N 32°08' W 091°05'4 8.4
2017-Oct-07 12:31N 32°08' W 091°00'5 9.6
2017-Oct-07 12:00N 32°13' W 090°59'5 9.4
2017-Oct-07 11:30N 32°17' W 090°56'4 7.8
2017-Oct-07 11:01N 32°21' W 090°55'5 9.0
2017-Oct-07 10:30N 32°21' W 090°60'4 8.4
2017-Oct-07 10:01N 32°25' W 091°01'5 9.6
2017-Oct-07 09:31N 32°28' W 091°06'4 8.6
2017-Oct-07 09:00N 32°32' W 091°06'5 9.6
2017-Oct-07 08:30N 32°36' W 091°09'  

Dump ship's entire track history